Time;durP1;ratioP1;P1;durP2;ratioP2;P2;SDS_P1;SDS_P2;PMS_P1;PMS_P2;Temp;Humidity;BMP_temperature;BMP_pressure;BME280_temperature;BME280_humidity;BME280_pressure;Samples;Min_cycle;Max_cycle;Signal;HPM_P1;HPM_P2
2020/12/06 00:01:20;;;;;;;21.70;19.50;;;;;;;6.90;59.47;100420.69;6076680;29;20259;-50
2020/12/06 00:04:41;;;;;;;23.03;19.83;;;;;;;6.93;59.35;100431.91;6070566;29;20252;-46
2020/12/06 00:08:01;;;;;;;21.90;18.17;;;;;;;6.93;59.29;100430.19;6077343;29;20249;-50
2020/12/06 00:11:21;;;;;;;22.10;19.60;;;;;;;6.95;59.38;100430.19;6066459;29;20236;-48
2020/12/06 00:14:42;;;;;;;23.17;19.20;;;;;;;6.92;59.22;100432.75;6064513;29;20237;-54
2020/12/06 00:18:03;;;;;;;21.87;18.13;;;;;;;6.93;59.37;100424.16;6071370;29;20328;-51
2020/12/06 00:21:23;;;;;;;22.67;20.27;;;;;;;6.89;59.40;100426.72;6068295;29;20485;-48
2020/12/06 00:24:43;;;;;;;23.07;19.97;;;;;;;6.89;59.28;100400.84;6073218;29;20240;-47
2020/12/06 00:28:04;;;;;;;22.07;19.27;;;;;;;6.86;59.13;100390.50;6075918;29;20229;-48
2020/12/06 00:31:25;;;;;;;23.57;20.17;;;;;;;6.88;59.36;100383.59;6073360;29;20233;-49
2020/12/06 00:34:45;;;;;;;21.00;18.27;;;;;;;6.90;59.38;100388.75;6072456;29;20236;-55
2020/12/06 00:38:06;;;;;;;24.73;19.30;;;;;;;6.90;59.21;100389.63;6073466;29;20439;-49
2020/12/06 00:41:26;;;;;;;24.33;20.77;;;;;;;6.82;59.42;100386.16;6069288;29;20316;-48
2020/12/06 00:44:47;;;;;;;22.97;19.93;;;;;;;6.88;59.29;100377.53;6077720;29;20540;-52
2020/12/06 00:48:08;;;;;;;25.60;21.00;;;;;;;6.93;59.31;100372.38;6065420;29;20237;-53
2020/12/06 00:51:29;;;;;;;25.13;21.67;;;;;;;6.90;59.28;100362.88;6063017;29;20233;-49
2020/12/06 00:54:49;;;;;;;25.43;21.47;;;;;;;6.87;59.31;100339.59;6076174;29;20241;-49
2020/12/06 00:58:09;;;;;;;21.43;18.37;;;;;;;6.83;59.27;100322.34;6057988;29;20666;-50
2020/12/06 01:01:30;;;;;;;25.27;20.80;;;;;;;6.81;59.44;100337.00;6079173;29;22579;-51
2020/12/06 01:04:51;;;;;;;23.63;19.37;;;;;;;6.83;59.48;100333.56;6074952;29;20319;-50
2020/12/06 01:08:12;;;;;;;25.80;22.33;;;;;;;6.82;59.66;100341.31;6072806;29;20626;-47
2020/12/06 01:11:32;;;;;;;26.63;20.50;;;;;;;6.79;59.53;100362.88;6075104;29;20678;-54
2020/12/06 01:14:52;;;;;;;26.70;21.93;;;;;;;6.76;59.65;100387.91;6055563;29;20237;-48
2020/12/06 01:18:12;;;;;;;24.43;20.67;;;;;;;6.69;59.79;100403.44;6083821;29;20263;-52
2020/12/06 01:21:34;;;;;;;21.93;19.63;;;;;;;6.74;59.69;100406.00;6074762;29;20245;-49
2020/12/06 01:24:54;;;;;;;24.97;20.77;;;;;;;6.85;59.58;100390.50;6074233;29;20239;-50
2020/12/06 01:28:15;;;;;;;22.60;19.97;;;;;;;6.83;59.46;100395.66;6069508;29;20236;-49
2020/12/06 01:31:35;;;;;;;23.03;20.03;;;;;;;6.81;59.58;100399.13;6091595;29;20622;-51
2020/12/06 01:34:55;;;;;;;21.83;18.93;;;;;;;6.81;59.57;100394.81;6076359;29;20260;-49
2020/12/06 01:38:16;;;;;;;22.17;19.23;;;;;;;6.67;59.89;100393.97;6070853;29;20260;-51
2020/12/06 01:41:37;;;;;;;22.73;20.30;;;;;;;6.79;59.88;100387.91;6086799;29;20323;-48
2020/12/06 01:44:57;;;;;;;21.77;19.33;;;;;;;6.85;59.46;100377.56;6078684;29;20347;-45
2020/12/06 01:48:18;;;;;;;23.77;19.73;;;;;;;6.81;59.70;100375.84;6076503;29;20232;-47
2020/12/06 01:51:38;;;;;;;25.20;20.40;;;;;;;6.64;60.22;100410.34;6079386;29;20638;-52
2020/12/06 01:55:02;;;;;;;23.03;20.37;;;;;;;6.46;60.78;100442.22;6084891;29;20224;-49
2020/12/06 01:58:25;;;;;;;23.20;19.63;;;;;;;6.34;61.41;100430.97;6078309;29;20241;-53
2020/12/06 02:01:54;;;;;;;23.20;19.93;;;;;;;6.49;60.77;100431.91;6083576;29;20232;-52
2020/12/06 02:05:15;;;;;;;25.70;20.13;;;;;;;6.63;60.45;100420.66;6073740;29;20260;-51
2020/12/06 02:08:35;;;;;;;23.93;20.70;;;;;;;6.76;59.87;100418.97;6072065;29;20248;-48
2020/12/06 02:11:57;;;;;;;22.63;19.67;;;;;;;6.76;59.89;100406.88;6074297;29;20233;-50
2020/12/06 02:15:17;;;;;;;24.80;19.87;;;;;;;6.78;59.79;100407.75;6075146;29;21692;-51
2020/12/06 02:18:37;;;;;;;22.30;19.90;;;;;;;6.78;59.90;100394.81;6076027;29;20264;-50
2020/12/06 02:21:58;;;;;;;22.57;19.33;;;;;;;6.85;59.66;100399.13;6077967;29;20623;-48
2020/12/06 02:25:19;;;;;;;21.10;18.33;;;;;;;6.77;59.76;100400.84;6081576;29;20809;-50
2020/12/06 02:28:39;;;;;;;21.83;19.43;;;;;;;6.84;59.85;100386.16;6071007;29;20614;-51
2020/12/06 02:31:59;;;;;;;22.40;20.07;;;;;;;6.92;59.30;100378.41;6075772;29;20229;-47
2020/12/06 02:35:19;;;;;;;22.13;19.17;;;;;;;6.92;59.39;100373.22;6077858;29;20241;-49
2020/12/06 02:38:40;;;;;;;19.57;17.47;;;;;;;6.94;59.29;100381.84;6073844;29;20228;-49
2020/12/06 02:42:01;;;;;;;24.50;19.97;;;;;;;6.88;59.58;100375.84;6075979;29;20595;-49
2020/12/06 02:45:21;;;;;;;20.50;17.83;;;;;;;6.90;59.65;100371.50;6073139;29;20237;-50
2020/12/06 02:48:42;;;;;;;20.97;18.70;;;;;;;6.96;59.42;100369.75;6075994;29;20581;-47
2020/12/06 02:52:02;;;;;;;21.73;19.47;;;;;;;6.96;59.37;100362.00;6076323;29;20620;-51
2020/12/06 02:55:24;;;;;;;22.50;19.47;;;;;;;7.00;59.22;100368.88;6075607;29;20237;-48
2020/12/06 02:58:44;;;;;;;19.17;17.07;;;;;;;6.98;59.28;100373.22;6073956;29;20517;-49
2020/12/06 03:02:04;;;;;;;22.87;19.77;;;;;;;7.02;59.31;100385.31;6063396;29;20229;-46
2020/12/06 03:05:25;;;;;;;23.10;20.17;;;;;;;7.02;59.44;100398.25;6086085;29;20910;-50
2020/12/06 03:08:45;;;;;;;24.33;19.87;;;;;;;7.01;59.30;100396.53;6073571;29;20237;-47
2020/12/06 03:12:06;;;;;;;25.20;20.83;;;;;;;7.02;59.31;100404.28;6063529;29;20241;-46
2020/12/06 03:15:26;;;;;;;23.47;20.97;;;;;;;6.99;59.63;100409.47;6089158;29;20252;-50
2020/12/06 03:18:47;;;;;;;21.00;17.77;;;;;;;7.07;59.19;100405.13;6077947;29;20228;-46
2020/12/06 03:22:07;;;;;;;22.67;19.37;;;;;;;7.12;59.21;100396.53;6064333;29;20241;-45
2020/12/06 03:25:28;;;;;;;26.57;22.47;;;;;;;7.11;59.16;100395.63;6087613;29;20252;-47
2020/12/06 03:28:49;;;;;;;24.93;22.10;;;;;;;7.14;59.09;100400.81;6079021;29;20232;-50
2020/12/06 03:32:09;;;;;;;24.30;20.97;;;;;;;7.18;59.04;100402.53;6065573;29;20312;-49
2020/12/06 03:35:29;;;;;;;22.77;20.00;;;;;;;7.19;58.90;100396.50;6083830;29;20372;-47
2020/12/06 03:38:50;;;;;;;23.10;20.40;;;;;;;7.10;59.18;100374.06;6073846;29;20244;-46
2020/12/06 03:42:12;;;;;;;22.17;19.27;;;;;;;7.05;59.51;100372.34;6068419;29;20367;-48
2020/12/06 03:45:33;;;;;;;23.70;20.63;;;;;;;7.07;59.63;100365.44;6067974;29;20243;-48
2020/12/06 03:48:53;;;;;;;26.77;20.27;;;;;;;7.07;59.58;100361.09;6070727;29;20264;-50
2020/12/06 03:52:13;;;;;;;22.03;18.97;;;;;;;7.11;59.56;100359.38;6065367;29;20238;-52
2020/12/06 03:55:33;;;;;;;22.70;19.57;;;;;;;7.14;59.39;100361.97;6079273;29;20236;-49
2020/12/06 03:58:53;;;;;;;22.83;19.40;;;;;;;7.15;59.50;100362.84;6069981;29;20233;-48
2020/12/06 04:02:15;;;;;;;22.00;19.60;;;;;;;7.10;59.71;100381.84;6065417;29;20243;-46
2020/12/06 04:05:35;;;;;;;25.27;21.63;;;;;;;7.16;59.62;100373.19;6088527;29;20237;-52
2020/12/06 04:08:55;;;;;;;22.37;19.67;;;;;;;7.15;59.62;100361.09;6072733;29;20225;-48
2020/12/06 04:12:15;;;;;;;21.97;19.53;;;;;;;7.19;59.57;100342.13;6062587;29;20623;-49
2020/12/06 04:15:35;;;;;;;24.27;20.70;;;;;;;7.22;59.59;100328.28;6078303;29;20237;-50
2020/12/06 04:18:56;;;;;;;21.97;18.87;;;;;;;7.20;59.99;100325.69;6079061;29;20237;-49
2020/12/06 04:22:17;;;;;;;24.93;20.13;;;;;;;7.23;59.75;100312.75;6057246;29;20245;-50
2020/12/06 04:25:37;;;;;;;26.83;23.60;;;;;;;7.19;60.02;100316.22;6080144;29;20244;-52
2020/12/06 04:28:57;;;;;;;25.73;21.33;;;;;;;7.14;60.24;100304.16;6071073;29;20248;-51
2020/12/06 04:32:17;;;;;;;23.07;20.60;;;;;;;7.00;61.00;100299.00;6068408;29;20249;-50
2020/12/06 04:35:38;;;;;;;25.63;22.27;;;;;;;7.04;60.81;100295.56;6074740;29;20598;-52
2020/12/06 04:38:58;;;;;;;27.60;21.77;;;;;;;7.14;60.62;100307.59;6069541;29;20245;-52
2020/12/06 04:42:19;;;;;;;28.63;23.40;;;;;;;7.15;60.96;100309.31;6057236;29;20490;-51
2020/12/06 04:45:40;;;;;;;27.73;23.20;;;;;;;7.19;60.58;100311.03;6076319;29;20240;-48
2020/12/06 04:49:17;;;;;;;25.73;21.97;;;;;;;7.23;61.17;100304.09;6084069;29;20240;-48
2020/12/06 04:52:44;;;;;;;23.57;21.07;;;;;;;7.17;60.85;100304.13;6061739;29;20246;-46
2020/12/06 04:56:09;;;;;;;26.90;22.33;;;;;;;7.07;61.48;100286.03;6079397;29;20237;-50
2020/12/06 04:59:29;;;;;;;24.67;20.80;;;;;;;7.13;61.61;100300.69;6073688;29;20315;-51
2020/12/06 05:02:52;;;;;;;25.30;22.03;;;;;;;7.12;61.61;100298.97;6067687;29;20314;-48
2020/12/06 05:06:18;;;;;;;25.10;22.17;;;;;;;7.11;61.74;100271.34;6079630;29;20240;-48
2020/12/06 05:09:41;;;;;;;25.20;22.53;;;;;;;7.12;61.36;100275.66;6078121;29;20237;-49
2020/12/06 05:13:02;;;;;;;23.90;21.33;;;;;;;7.18;61.52;100278.22;6059854;29;20232;-49
2020/12/06 05:16:22;;;;;;;26.37;23.70;;;;;;;7.28;61.11;100279.06;6086319;29;20518;-52
2020/12/06 05:19:43;;;;;;;26.83;22.67;;;;;;;7.33;61.04;100289.38;6075669;29;20233;-51
2020/12/06 05:23:04;;;;;;;25.93;22.70;;;;;;;7.34;60.82;100289.38;6063514;29;20550;-47
2020/12/06 05:26:24;;;;;;;26.17;23.27;;;;;;;7.28;60.67;100285.09;6063258;29;20458;-52
2020/12/06 05:29:44;;;;;;;27.87;23.50;;;;;;;7.29;61.14;100292.00;6078411;29;20726;-50
2020/12/06 05:33:05;;;;;;;26.03;22.50;;;;;;;7.40;60.81;100289.34;6071330;29;20244;-48
2020/12/06 05:36:25;;;;;;;25.83;22.90;;;;;;;7.42;60.80;100284.16;6075174;29;20241;-47
2020/12/06 05:39:46;;;;;;;25.07;22.13;;;;;;;7.46;60.86;100283.28;6077472;29;20245;-49
2020/12/06 05:43:07;;;;;;;29.97;24.97;;;;;;;7.46;60.37;100280.69;6066390;29;20241;-49
2020/12/06 05:46:32;;;;;;;23.53;20.97;;;;;;;7.52;60.52;100269.44;6086899;29;20240;-49
2020/12/06 05:49:53;;;;;;;25.37;21.47;;;;;;;7.54;60.58;100265.09;6058658;29;20237;-49
2020/12/06 05:53:14;;;;;;;25.07;21.37;;;;;;;7.60;60.67;100273.72;6071935;29;20271;-48
2020/12/06 05:56:37;;;;;;;24.13;20.90;;;;;;;7.67;59.95;100271.94;6081849;29;20237;-50
2020/12/06 05:59:59;;;;;;;25.00;22.30;;;;;;;7.66;60.34;100263.31;6075908;29;20234;-49
2020/12/06 06:03:27;;;;;;;28.43;25.63;;;;;;;7.45;61.04;100255.66;6064991;29;21275;-48
2020/12/06 06:06:50;;;;;;;24.93;21.53;;;;;;;7.49;61.28;100252.19;6078859;29;20319;-50
2020/12/06 06:10:15;;;;;;;25.07;22.20;;;;;;;7.58;60.85;100241.78;6069038;29;20816;-51
2020/12/06 06:13:40;;;;;;;25.43;22.83;;;;;;;7.57;60.80;100254.75;6066784;29;20451;-53
2020/12/06 06:17:03;;;;;;;25.77;23.00;;;;;;;7.64;60.84;100246.91;6084640;29;20252;-47
2020/12/06 06:20:29;;;;;;;26.50;22.07;;;;;;;7.68;60.51;100235.66;6078456;29;20236;-51
2020/12/06 06:23:51;;;;;;;27.77;23.40;;;;;;;7.63;60.76;100234.81;6079633;29;20229;-46
2020/12/06 06:27:12;;;;;;;26.43;22.10;;;;;;;7.62;60.74;100233.13;6075010;29;20264;-49
2020/12/06 06:30:33;;;;;;;28.87;22.47;;;;;;;7.67;60.86;100233.06;6066106;29;20546;-47
2020/12/06 06:33:55;;;;;;;26.07;23.20;;;;;;;7.65;61.20;100238.25;6060960;29;20264;-49
2020/12/06 06:37:16;;;;;;;26.10;22.20;;;;;;;7.67;61.33;100220.09;6066299;29;20655;-49
2020/12/06 06:40:37;;;;;;;25.77;21.40;;;;;;;7.64;61.17;100235.69;6082885;29;20240;-47
2020/12/06 06:44:00;;;;;;;24.17;21.33;;;;;;;7.76;61.00;100226.97;6070568;29;20561;-49
2020/12/06 06:47:21;;;;;;;28.97;23.53;;;;;;;7.78;60.97;100218.31;6063485;29;20564;-53
2020/12/06 06:50:47;;;;;;;27.10;22.33;;;;;;;7.77;61.20;100205.34;6095331;29;20501;-48
2020/12/06 06:54:09;;;;;;;26.10;23.30;;;;;;;7.70;61.29;100201.97;6067360;29;20228;-49
2020/12/06 06:57:31;;;;;;;25.30;21.47;;;;;;;7.76;61.95;100208.84;6059963;29;20333;-51
2020/12/06 07:00:51;;;;;;;29.15;26.10;;;;;;;7.78;61.81;100212.28;6076669;29;20753;-46
2020/12/06 07:04:18;;;;;;;26.80;23.30;;;;;;;7.81;62.34;100218.31;6073217;29;20248;-49
2020/12/06 07:07:42;;;;;;;26.37;21.47;;;;;;;7.83;62.29;100218.25;6067058;29;20236;-52
2020/12/06 07:11:05;;;;;;;25.93;22.60;;;;;;;7.86;61.95;100218.25;6073081;29;20229;-50
2020/12/06 07:14:27;;;;;;;24.73;21.03;;;;;;;7.87;62.51;100222.56;6075598;29;20229;-48
2020/12/06 07:17:49;;;;;;;31.87;24.27;;;;;;;7.89;62.41;100220.84;6066469;29;20237;-49
2020/12/06 07:21:10;;;;;;;26.13;22.60;;;;;;;7.92;62.45;100220.78;6073015;29;20237;-48
2020/12/06 07:24:31;;;;;;;28.03;24.10;;;;;;;7.95;62.59;100209.53;6073676;29;20234;-47
2020/12/06 07:27:51;;;;;;;29.60;23.83;;;;;;;8.00;62.55;100203.44;6065025;29;20822;-50
2020/12/06 07:31:12;;;;;;;26.43;21.67;;;;;;;8.05;62.23;100198.22;6077501;29;20233;-48
2020/12/06 07:34:33;;;;;;;29.60;24.17;;;;;;;8.04;62.72;100201.69;6070207;29;20228;-53
2020/12/06 07:37:55;;;;;;;26.00;21.60;;;;;;;8.07;63.00;100189.56;6060900;29;20240;-48
2020/12/06 07:41:17;;;;;;;27.33;22.70;;;;;;;8.16;62.90;100195.53;6069784;29;20245;-51
2020/12/06 07:44:45;;;;;;;24.90;22.00;;;;;;;8.21;63.07;100191.16;6072006;29;20253;-49
2020/12/06 07:48:05;;;;;;;28.80;22.93;;;;;;;8.21;62.08;100180.78;6063533;29;20236;-51
2020/12/06 07:51:26;;;;;;;26.67;22.67;;;;;;;8.18;62.53;100181.69;6073387;29;20248;-51
2020/12/06 07:54:55;;;;;;;27.23;23.00;;;;;;;8.17;63.36;100185.16;6068526;29;20234;-54
2020/12/06 07:58:20;;;;;;;32.10;23.80;;;;;;;8.17;63.16;100187.75;6063819;29;20236;-54
2020/12/06 08:01:42;;;;;;;29.23;23.37;;;;;;;8.19;63.26;100203.28;6069446;29;20612;-52
2020/12/06 08:05:03;;;;;;;41.27;35.33;;;;;;;8.22;63.01;100192.88;6057937;29;20320;-47
2020/12/06 08:08:24;;;;;;;36.13;31.37;;;;;;;8.28;63.04;100192.84;6067020;29;20651;-49
2020/12/06 08:11:47;;;;;;;55.70;47.93;;;;;;;8.34;62.88;100203.16;6065488;29;20233;-49
2020/12/06 08:15:10;;;;;;;37.27;29.27;;;;;;;8.37;62.70;100195.31;6058615;29;20246;-50
2020/12/06 08:18:30;;;;;;;30.57;24.20;;;;;;;8.39;62.81;100187.53;6068954;29;20854;-50
2020/12/06 08:21:51;;;;;;;27.13;23.03;;;;;;;8.40;62.79;100184.91;6066200;29;20237;-51
2020/12/06 08:25:12;;;;;;;27.37;23.60;;;;;;;8.43;62.77;100178.88;6069094;29;20290;-50
2020/12/06 08:28:32;;;;;;;27.27;22.17;;;;;;;8.42;62.80;100188.41;6069902;29;20699;-51
2020/12/06 08:32:02;;;;;;;30.37;25.60;;;;;;;8.41;63.16;100183.19;6063945;29;20233;-51
2020/12/06 08:35:40;;;;;;;30.23;24.27;;;;;;;8.40;63.09;100182.34;6075695;29;20256;-52
2020/12/06 08:39:00;;;;;;;27.77;22.83;;;;;;;8.43;63.03;100192.72;6072699;29;20315;-48
2020/12/06 08:42:22;;;;;;;24.77;21.87;;;;;;;8.47;63.03;100178.84;6053252;29;20607;-51
2020/12/06 08:45:42;;;;;;;30.43;24.23;;;;;;;8.45;63.10;100175.41;6074411;29;20245;-50
2020/12/06 08:49:16;;;;;;;30.57;23.53;;;;;;;8.50;62.95;100145.94;6078857;29;20319;-49
2020/12/06 08:52:36;;;;;;;30.20;22.47;;;;;;;8.48;63.04;100149.41;6056232;29;20244;-51
2020/12/06 08:55:57;;;;;;;26.63;22.67;;;;;;;8.48;63.11;100130.38;6073836;29;20343;-51
2020/12/06 08:59:18;;;;;;;26.27;22.53;;;;;;;8.41;63.31;100121.81;6069076;29;20228;-48
2020/12/06 09:02:38;;;;;;;27.53;22.03;;;;;;;8.45;63.13;100123.50;6058755;29;20236;-46
2020/12/06 09:05:59;;;;;;;36.97;23.90;;;;;;;8.52;63.34;100133.81;6080254;29;20245;-51
2020/12/06 09:09:19;;;;;;;27.83;22.67;;;;;;;8.55;63.32;100131.16;6076244;29;20574;-48
2020/12/06 09:12:40;;;;;;;26.53;22.90;;;;;;;8.60;63.04;100121.59;6055549;29;20673;-47
2020/12/06 09:16:01;;;;;;;25.90;22.57;;;;;;;8.59;62.98;100132.88;6075608;29;20229;-48
2020/12/06 09:19:21;;;;;;;26.73;22.97;;;;;;;8.61;63.29;100133.72;6076916;29;20232;-52
2020/12/06 09:22:42;;;;;;;27.23;24.27;;;;;;;8.64;63.08;100123.28;6354516;23;20236;-48
2020/12/06 09:26:04;;;;;;;28.77;23.23;;;;;;;8.69;63.58;100121.47;6098493;28;20232;-48
2020/12/06 09:29:24;;;;;;;29.80;23.47;;;;;;;8.73;63.17;100120.56;6080532;29;20233;-50
2020/12/06 09:32:44;;;;;;;38.47;29.90;;;;;;;8.74;63.03;100126.59;6085657;29;20621;-49
2020/12/06 09:36:05;;;;;;;30.70;26.13;;;;;;;8.99;67.71;100124.56;6101752;29;20240;-49
2020/12/06 09:39:26;;;;;;;32.60;26.80;;;;;;;9.19;66.56;100117.34;6101170;28;20270;-45
2020/12/06 09:42:47;;;;;;;85.17;77.73;;;;;;;9.55;66.10;100103.81;6080319;29;20504;-51
2020/12/06 09:46:08;;;;;;;443.77;417.70;;;;;;;9.84;64.66;100087.72;6094910;29;20237;-45
2020/12/06 09:49:28;;;;;;;891.40;812.83;;;;;;;10.15;64.49;100071.53;6100717;28;20240;-46
2020/12/06 09:52:48;;;;;;;540.67;505.10;;;;;;;10.67;63.40;100041.88;6089632;29;20231;-51
2020/12/06 09:56:09;;;;;;;881.00;803.10;;;;;;;10.77;61.78;100053.81;6104056;28;20229;-46
2020/12/06 09:59:30;;;;;;;241.67;222.33;;;;;;;10.93;60.45;100069.94;6088157;29;20264;-46
2020/12/06 10:02:50;;;;;;;45.03;40.87;;;;;;;10.97;62.71;100060.31;6095686;28;20230;-50
2020/12/06 10:06:11;;;;;;;35.73;28.80;;;;;;;11.09;59.89;100067.88;6105124;29;20248;-44
2020/12/06 10:09:31;;;;;;;34.23;27.60;;;;;;;10.72;59.13;100076.50;6093319;28;20229;-46
2020/12/06 10:12:52;;;;;;;29.97;24.90;;;;;;;10.40;59.24;100087.56;6093205;28;20239;-48
2020/12/06 10:16:15;;;;;;;30.83;24.97;;;;;;;10.35;59.41;100066.84;6099573;29;20312;-47
2020/12/06 10:19:36;;;;;;;31.37;24.60;;;;;;;10.23;59.19;100059.25;6104115;29;20237;-52
2020/12/06 10:22:56;;;;;;;30.60;27.13;;;;;;;10.18;59.25;100079.31;6068715;29;20241;-48
2020/12/06 10:26:17;;;;;;;29.77;25.47;;;;;;;10.20;59.32;100086.19;6081583;29;20233;-48
2020/12/06 10:29:38;;;;;;;30.97;27.60;;;;;;;9.94;59.83;100091.84;6080243;29;20233;-46
2020/12/06 10:32:59;;;;;;;32.10;25.37;;;;;;;9.85;60.11;100086.84;6068148;29;20240;-47
2020/12/06 10:36:20;;;;;;;31.40;27.57;;;;;;;9.80;59.79;100065.25;6075650;29;20233;-47
2020/12/06 10:39:40;;;;;;;31.00;26.47;;;;;;;9.70;60.39;100066.31;6073594;29;20229;-48
2020/12/06 10:43:01;;;;;;;31.37;26.60;;;;;;;9.60;60.22;100079.47;6068413;29;20324;-50
2020/12/06 10:46:26;;;;;;;31.80;27.43;;;;;;;9.69;60.09;100088.81;6079800;29;20328;-45
2020/12/06 10:49:46;;;;;;;31.37;26.30;;;;;;;9.66;60.02;100087.16;6085813;29;20248;-46
2020/12/06 10:53:06;;;;;;;35.77;28.60;;;;;;;9.66;59.89;100081.09;6069480;29;21021;-47
2020/12/06 10:56:27;;;;;;;30.97;26.23;;;;;;;9.70;59.99;100087.97;6079875;29;20276;-46
2020/12/06 10:59:47;;;;;;;31.10;27.30;;;;;;;9.65;59.62;100092.38;6078862;29;20229;-50
2020/12/06 11:03:09;;;;;;;32.63;26.87;;;;;;;9.62;59.92;100080.28;6072606;29;20232;-46
2020/12/06 11:06:30;;;;;;;30.50;24.47;;;;;;;9.53;59.93;100059.63;6075616;29;20265;-47
2020/12/06 11:09:51;;;;;;;32.77;25.17;;;;;;;9.58;60.08;100057.84;6056996;29;20233;-46
2020/12/06 11:13:11;;;;;;;35.43;27.87;;;;;;;9.64;59.79;100056.88;6073485;29;20638;-48
2020/12/06 11:16:32;;;;;;;32.53;26.63;;;;;;;9.67;59.78;100051.59;6082678;29;20241;-47
2020/12/06 11:19:53;;;;;;;34.40;27.97;;;;;;;9.61;59.94;100052.56;6080121;29;20229;-45
2020/12/06 11:23:14;;;;;;;30.53;25.13;;;;;;;9.60;59.72;100030.06;6077224;29;20244;-46
2020/12/06 11:26:34;;;;;;;35.50;28.63;;;;;;;9.54;59.96;100034.50;6084157;29;20611;-52
2020/12/06 11:29:55;;;;;;;30.17;25.17;;;;;;;9.47;60.09;100033.75;6080612;29;20268;-53
2020/12/06 11:33:17;;;;;;;33.90;28.27;;;;;;;9.37;60.47;100027.00;6070619;29;20259;-47
2020/12/06 11:36:38;;;;;;;31.20;26.67;;;;;;;9.33;60.24;100020.16;6075222;29;20699;-47
2020/12/06 11:39:58;;;;;;;32.60;26.10;;;;;;;9.38;60.12;100031.31;6077303;29;20249;-50
2020/12/06 11:43:19;;;;;;;32.47;26.20;;;;;;;9.46;60.29;100038.09;6074121;29;20236;-51
2020/12/06 11:46:39;;;;;;;34.00;26.00;;;;;;;9.46;60.25;100034.66;6074065;29;20286;-49
2020/12/06 11:50:00;;;;;;;32.07;26.33;;;;;;;9.43;60.27;100034.69;6076162;29;20316;-49
2020/12/06 11:53:21;;;;;;;34.60;27.27;;;;;;;9.29;60.59;100021.09;6068308;29;20232;-50
2020/12/06 11:56:46;;;;;;;35.97;28.10;;;;;;;9.19;60.97;99991.78;6072066;29;20343;-46
2020/12/06 12:00:07;;;;;;;29.20;25.33;;;;;;;9.25;60.77;100002.09;6071413;29;20245;-51
2020/12/06 12:03:32;;;;;;;34.03;26.60;;;;;;;9.26;60.48;99972.59;6070885;29;20232;-47
2020/12/06 12:06:52;;;;;;;31.40;26.70;;;;;;;9.23;60.78;99957.94;6071956;29;20253;-50
2020/12/06 12:10:15;;;;;;;29.60;25.67;;;;;;;9.36;60.55;99947.31;6074714;29;20762;-45
2020/12/06 12:13:35;;;;;;;31.80;24.80;;;;;;;9.38;60.49;99962.03;6067761;29;20587;-47
2020/12/06 12:16:55;;;;;;;32.70;25.87;;;;;;;9.37;60.43;99957.69;6067185;29;20229;-50
2020/12/06 12:20:15;;;;;;;30.60;27.27;;;;;;;9.42;59.93;99957.59;6071210;29;20233;-44
2020/12/06 12:23:36;;;;;;;32.93;27.17;;;;;;;9.45;59.99;99957.56;6079937;29;20251;-49
2020/12/06 12:26:58;;;;;;;30.60;25.73;;;;;;;9.35;60.45;99948.22;6067842;29;20245;-52
2020/12/06 12:30:18;;;;;;;29.93;25.83;;;;;;;9.41;60.10;99946.34;6070783;29;20268;-46
2020/12/06 12:33:38;;;;;;;32.97;28.80;;;;;;;9.46;60.06;99938.50;6074777;29;20263;-47
2020/12/06 12:36:59;;;;;;;34.70;27.83;;;;;;;9.46;60.14;99933.31;6062925;29;20229;-46
2020/12/06 12:40:19;;;;;;;33.20;26.77;;;;;;;9.42;59.83;99927.28;6073418;29;20240;-49
2020/12/06 12:43:40;;;;;;;29.90;26.20;;;;;;;9.45;59.88;99915.97;6077691;29;20634;-50
2020/12/06 12:47:01;;;;;;;30.13;26.53;;;;;;;9.48;59.79;99915.94;6072557;29;20237;-45
2020/12/06 12:50:22;;;;;;;32.53;27.97;;;;;;;9.41;59.94;99912.56;6071244;29;20261;-52
2020/12/06 12:53:43;;;;;;;39.80;30.03;;;;;;;9.41;59.65;99899.59;6073169;29;20265;-46
2020/12/06 12:57:04;;;;;;;33.33;27.30;;;;;;;9.39;59.96;99905.69;6059256;29;20248;-46
2020/12/06 13:00:26;;;;;;;33.30;27.97;;;;;;;9.33;60.39;99917.06;6069999;29;20225;-48
2020/12/06 13:03:46;;;;;;;33.20;28.43;;;;;;;9.31;60.30;99913.63;6073359;29;20229;-46
2020/12/06 13:07:07;;;;;;;31.53;26.93;;;;;;;9.27;60.22;99911.97;6059996;29;20249;-49
2020/12/06 13:10:27;;;;;;;30.57;26.90;;;;;;;9.19;60.68;99898.25;6075615;29;20241;-46
2020/12/06 13:13:47;;;;;;;30.20;25.73;;;;;;;9.22;60.67;99908.59;6064285;29;20229;-48
2020/12/06 13:17:08;;;;;;;36.07;27.13;;;;;;;9.32;60.45;99899.75;6063441;29;20232;-49
2020/12/06 13:20:29;;;;;;;34.53;27.70;;;;;;;9.39;60.26;99893.56;6084616;29;20324;-46
2020/12/06 13:23:49;;;;;;;34.50;28.53;;;;;;;9.30;60.26;99903.25;6080014;29;20239;-52
2020/12/06 13:27:09;;;;;;;33.70;27.57;;;;;;;9.23;60.27;99905.97;6079616;29;20336;-46
2020/12/06 13:30:30;;;;;;;32.13;27.70;;;;;;;9.33;60.47;99916.22;6087105;29;20241;-48
2020/12/06 13:33:51;;;;;;;32.47;27.57;;;;;;;9.44;60.23;99924.66;6079223;29;20243;-48
2020/12/06 13:37:14;;;;;;;32.97;27.40;;;;;;;9.50;59.57;99913.28;6060088;29;20248;-48
2020/12/06 13:40:35;;;;;;;31.40;26.97;;;;;;;9.45;59.97;99915.97;6098220;29;20801;-46
2020/12/06 13:43:55;;;;;;;33.07;27.70;;;;;;;9.41;59.65;99909.13;6067267;29;20240;-50
2020/12/06 13:47:16;;;;;;;31.23;26.63;;;;;;;9.39;59.74;99913.50;6069748;29;20249;-47
2020/12/06 13:50:37;;;;;;;36.27;28.47;;;;;;;9.40;59.71;99920.38;6071674;29;20249;-46
2020/12/06 13:53:57;;;;;;;35.33;30.80;;;;;;;9.35;60.31;99920.50;6070767;29;20614;-45
2020/12/06 13:57:18;;;;;;;30.37;26.90;;;;;;;9.40;60.20;99929.06;6067921;29;20237;-49
2020/12/06 14:00:40;;;;;;;36.33;29.20;;;;;;;9.28;59.99;99950.06;6083927;29;20631;-48
2020/12/06 14:04:00;;;;;;;34.40;26.87;;;;;;;9.30;59.96;99952.63;6070673;29;20243;-50
2020/12/06 14:07:21;;;;;;;33.90;26.90;;;;;;;9.30;60.44;99963.03;6070015;29;20245;-47
2020/12/06 14:10:42;;;;;;;34.57;27.97;;;;;;;9.23;60.30;99936.31;6073284;29;20241;-49
2020/12/06 14:14:02;;;;;;;36.90;30.57;;;;;;;9.26;60.21;99926.69;6082603;29;20228;-48
2020/12/06 14:17:24;;;;;;;36.23;29.53;;;;;;;9.14;60.77;99932.13;6064149;29;20238;-47
2020/12/06 14:20:44;;;;;;;35.33;28.57;;;;;;;9.20;60.51;99939.78;6085273;29;20324;-46
2020/12/06 14:24:05;;;;;;;31.97;27.30;;;;;;;9.28;60.03;99944.84;6079107;29;20225;-47
2020/12/06 14:27:26;;;;;;;36.77;28.60;;;;;;;9.20;60.40;99957.13;6068279;29;20252;-49
2020/12/06 14:30:49;;;;;;;44.07;33.53;;;;;;;9.23;60.15;99957.94;6075442;29;20233;-48
2020/12/06 14:34:09;;;;;;;34.63;27.83;;;;;;;8.90;60.96;99963.69;6080633;29;20236;-48
2020/12/06 14:37:30;;;;;;;29.97;26.20;;;;;;;9.04;63.49;99956.53;6066010;29;20241;-48
2020/12/06 14:40:51;;;;;;;24.10;19.27;;;;;;;9.27;64.31;99948.34;6081143;29;20225;-51
2020/12/06 14:44:12;;;;;;;39.73;32.93;;;;;;;9.35;61.26;99953.41;6077229;29;20356;-51
2020/12/06 14:47:32;;;;;;;33.53;28.83;;;;;;;9.43;61.25;99946.34;6077244;29;20614;-47
2020/12/06 14:50:53;;;;;;;33.30;26.73;;;;;;;9.55;62.66;99953.91;6084162;29;20233;-49
2020/12/06 14:54:14;;;;;;;37.43;30.73;;;;;;;9.61;61.09;99945.13;6077616;29;20239;-49
2020/12/06 14:57:35;;;;;;;37.37;27.80;;;;;;;9.58;62.23;99925.25;6067579;29;20236;-47
2020/12/06 15:00:56;;;;;;;34.00;28.40;;;;;;;9.57;61.69;99933.94;6082401;29;20824;-52
2020/12/06 15:04:17;;;;;;;32.73;27.60;;;;;;;9.50;60.40;99931.47;6079609;29;20240;-52
2020/12/06 15:07:37;;;;;;;34.20;28.63;;;;;;;9.47;60.03;99937.59;6065595;29;20241;-52
2020/12/06 15:10:57;;;;;;;35.80;28.13;;;;;;;9.45;60.30;99936.78;6078478;29;20245;-49
2020/12/06 15:14:19;;;;;;;35.17;29.87;;;;;;;9.45;60.12;99922.03;6071968;29;20264;-51
2020/12/06 15:17:39;;;;;;;34.47;28.03;;;;;;;9.42;59.90;99909.09;6066902;29;20252;-50
2020/12/06 15:21:00;;;;;;;37.93;30.63;;;;;;;9.43;60.16;99902.16;6074402;29;20229;-51
2020/12/06 15:24:20;;;;;;;37.47;30.57;;;;;;;9.38;59.97;99897.06;6067917;29;20228;-51
2020/12/06 15:27:41;;;;;;;38.80;28.73;;;;;;;9.43;60.05;99900.41;6064846;29;20331;-52